createdAt,value
2018-03-21T00:00:06.395Z,61.36
2018-03-21T00:02:35.056Z,60.34
2018-03-21T00:05:07.182Z,60.82
2018-03-21T00:07:35.444Z,62.03
2018-03-21T00:10:07.614Z,62.53
2018-03-21T00:12:35.922Z,61.89
2018-03-21T00:15:06.187Z,62.11
2018-03-21T00:17:34.566Z,62.48
2018-03-21T00:20:06.464Z,61.92
2018-03-21T00:22:34.750Z,61.93
2018-03-21T00:25:06.161Z,62.80
2018-03-21T00:27:34.651Z,62.41
2018-03-21T00:30:06.683Z,62.54
2018-03-21T00:32:35.143Z,63.02
2018-03-21T00:35:05.904Z,63.37
2018-03-21T00:37:34.218Z,63.96
2018-03-21T00:40:09.403Z,63.60
2018-03-21T00:42:37.717Z,63.55
2018-03-21T00:45:05.968Z,63.49
2018-03-21T00:47:34.273Z,63.49
2018-03-21T00:50:09.509Z,63.75
2018-03-21T00:52:38.014Z,63.85
2018-03-21T00:55:06.276Z,64.58
2018-03-21T00:57:34.570Z,64.26
2018-03-21T01:00:06.093Z,64.74
2018-03-21T01:02:34.377Z,65.08
2018-03-21T01:05:09.502Z,65.18
2018-03-21T01:07:37.795Z,65.60
2018-03-21T01:10:06.689Z,65.57
2018-03-21T01:12:34.954Z,65.76
2018-03-21T01:15:05.993Z,65.74
2018-03-21T01:17:34.279Z,65.81
2018-03-21T01:20:09.665Z,66.00
2018-03-21T01:22:38.151Z,65.78
2018-03-21T01:25:06.465Z,65.73
2018-03-21T01:27:35.038Z,65.76
2018-03-21T01:30:06.234Z,65.74
2018-03-21T01:32:35.154Z,65.63
2018-03-21T01:35:06.710Z,65.28
2018-03-21T01:37:35.058Z,65.29
2018-03-21T01:40:06.668Z,65.42
2018-03-21T01:42:35.080Z,66.20
2018-03-21T01:45:06.806Z,66.30
2018-03-21T01:47:35.106Z,66.09
2018-03-21T01:50:06.763Z,66.08
2018-03-21T01:52:35.409Z,66.92
2018-03-21T01:55:07.246Z,66.32
2018-03-21T01:57:35.746Z,66.27
2018-03-21T02:00:07.738Z,66.99
2018-03-21T02:02:36.019Z,66.60
2018-03-21T02:05:06.380Z,66.99
2018-03-21T02:07:34.690Z,66.97
2018-03-21T02:10:06.544Z,67.98
2018-03-21T02:12:35.369Z,67.74
2018-03-21T02:15:07.882Z,67.48
2018-03-21T02:17:36.177Z,68.04
2018-03-21T02:20:07.651Z,67.91
2018-03-21T02:22:36.162Z,67.69
2018-03-21T02:25:06.279Z,67.98
2018-03-21T02:27:34.592Z,68.44
2018-03-21T02:30:06.285Z,69.05
2018-03-21T02:32:34.828Z,68.72
2018-03-21T02:35:06.173Z,69.70
2018-03-21T02:37:34.785Z,69.50
2018-03-21T02:40:06.813Z,69.39
2018-03-21T02:42:35.141Z,69.85
2018-03-21T02:45:07.137Z,69.42
2018-03-21T02:47:35.615Z,70.46
2018-03-21T02:50:07.635Z,70.34
2018-03-21T02:52:35.957Z,70.23
2018-03-21T02:55:07.842Z,70.22
2018-03-21T02:57:36.156Z,70.70
2018-03-21T03:00:06.157Z,70.06
2018-03-21T03:02:34.435Z,70.52
2018-03-21T03:05:09.712Z,70.10
2018-03-21T03:07:37.989Z,70.56
2018-03-21T03:10:06.308Z,70.56
2018-03-21T03:12:34.607Z,70.38
2018-03-21T03:15:06.157Z,70.45
2018-03-21T03:17:34.424Z,70.33
2018-03-21T03:20:05.914Z,70.50
2018-03-21T03:22:34.179Z,70.78
2018-03-21T03:25:05.797Z,70.84
2018-03-21T03:27:34.098Z,71.37
2018-03-21T03:30:05.558Z,70.96
2018-03-21T03:32:33.890Z,70.83
2018-03-21T03:35:08.699Z,71.15
2018-03-21T03:37:37.696Z,71.53
2018-03-21T03:40:06.579Z,71.25
2018-03-21T03:42:34.892Z,71.92
2018-03-21T03:45:06.817Z,71.55
2018-03-21T03:47:35.107Z,71.45
2018-03-21T03:50:06.325Z,71.96
2018-03-21T03:52:34.730Z,71.56
2018-03-21T03:55:06.725Z,71.95
2018-03-21T03:57:35.021Z,72.05
2018-03-21T04:00:07.185Z,71.93
2018-03-21T04:02:35.554Z,72.06
2018-03-21T04:05:07.645Z,72.29
2018-03-21T04:07:36.081Z,71.94
2018-03-21T04:10:06.752Z,72.05
2018-03-21T04:12:35.271Z,72.18
2018-03-21T04:15:06.373Z,72.25
2018-03-21T04:17:34.698Z,72.16
2018-03-21T04:20:06.162Z,72.39
2018-03-21T04:22:34.450Z,72.66
2018-03-21T04:25:06.009Z,72.46
2018-03-21T04:27:34.419Z,72.58
2018-03-21T04:30:06.576Z,72.91
2018-03-21T04:32:35.220Z,73.35
2018-03-21T04:35:07.196Z,72.88
2018-03-21T04:37:35.502Z,72.66
2018-03-21T04:40:07.777Z,72.69
2018-03-21T04:42:36.085Z,72.99
2018-03-21T04:45:06.197Z,73.31
2018-03-21T04:47:34.532Z,73.01
2018-03-21T04:50:06.171Z,73.13
2018-03-21T04:52:34.737Z,73.44
2018-03-21T04:55:06.324Z,73.61
2018-03-21T04:57:34.622Z,73.77
2018-03-21T05:00:06.004Z,73.63
2018-03-21T05:02:34.393Z,74.06
2018-03-21T05:05:09.794Z,73.99
2018-03-21T05:07:38.100Z,73.82
2018-03-21T05:10:06.607Z,74.21
2018-03-21T05:12:35.242Z,74.76
2018-03-21T05:15:06.297Z,75.08
2018-03-21T05:17:34.742Z,75.34
2018-03-21T05:20:06.121Z,75.04
2018-03-21T05:22:34.433Z,74.60
2018-03-21T05:25:06.911Z,75.03
2018-03-21T05:27:35.198Z,74.94
2018-03-21T05:30:06.900Z,75.26
2018-03-21T05:32:35.409Z,75.18
2018-03-21T05:35:08.117Z,75.09
2018-03-21T05:37:36.534Z,75.15
2018-03-21T05:40:06.214Z,75.65
2018-03-21T05:42:34.485Z,76.22
2018-03-21T05:45:06.542Z,76.33
2018-03-21T05:47:34.817Z,76.41
2018-03-21T05:50:08.890Z,76.61
2018-03-21T05:52:37.364Z,76.25
2018-03-21T05:55:06.617Z,76.41
2018-03-21T05:57:34.871Z,76.21
2018-03-21T06:00:09.899Z,76.23
2018-03-21T06:02:39.432Z,76.59
2018-03-21T06:05:07.775Z,76.19
2018-03-21T06:07:36.137Z,76.22
2018-03-21T06:10:07.750Z,75.82
2018-03-21T06:12:36.090Z,75.86
2018-03-21T06:15:06.212Z,74.96
2018-03-21T06:17:34.509Z,74.75
2018-03-21T06:20:06.717Z,72.55
2018-03-21T06:22:34.981Z,70.43
2018-03-21T06:25:05.973Z,68.04
2018-03-21T06:27:34.258Z,66.12
2018-03-21T06:30:07.315Z,64.17
2018-03-21T06:32:35.764Z,63.37
2018-03-21T06:35:05.844Z,62.57
2018-03-21T06:37:34.146Z,63.79
2018-03-21T06:40:05.662Z,63.76
2018-03-21T06:42:33.967Z,61.60
2018-03-21T06:45:09.181Z,58.26
2018-03-21T06:47:37.482Z,58.16
2018-03-21T06:50:05.949Z,58.85
2018-03-21T06:52:34.201Z,59.26
2018-03-21T06:55:05.775Z,59.03
2018-03-21T06:57:34.321Z,60.55
2018-03-21T07:00:05.758Z,61.50
2018-03-21T07:02:34.127Z,62.03
2018-03-21T07:05:05.617Z,62.08
2018-03-21T07:07:33.900Z,62.74
2018-03-21T07:10:08.825Z,63.36
2018-03-21T07:12:37.123Z,64.69
2018-03-21T07:15:18.325Z,64.25
2018-03-21T07:17:46.630Z,63.52
2018-03-21T07:20:14.923Z,62.12
2018-03-21T07:22:43.734Z,62.85
2018-03-21T07:25:12.039Z,59.49
2018-03-21T07:27:40.313Z,57.48
2018-03-21T07:30:08.614Z,56.83
2018-03-21T07:32:36.909Z,55.12
2018-03-21T07:35:06.836Z,57.21
2018-03-21T07:37:35.126Z,56.61
2018-03-21T07:40:06.595Z,56.08
2018-03-21T07:42:35.542Z,58.46
2018-03-21T07:45:07.496Z,58.34
2018-03-21T07:47:35.781Z,58.03
2018-03-21T07:50:07.340Z,54.65
2018-03-21T07:52:35.625Z,55.92
2018-03-21T07:55:06.941Z,55.20
2018-03-21T07:57:35.482Z,54.77
2018-03-21T08:00:07.485Z,55.35
2018-03-21T08:02:35.766Z,56.56
2018-03-21T08:05:07.591Z,60.79
2018-03-21T08:07:35.913Z,61.74
2018-03-21T08:10:05.946Z,60.56
2018-03-21T08:12:34.453Z,57.83
2018-03-21T08:15:06.220Z,60.55
2018-03-21T08:17:34.575Z,54.67
2018-03-21T08:20:06.568Z,51.11
2018-03-21T08:22:34.978Z,50.89
2018-03-21T08:25:07.044Z,52.33
2018-03-21T08:27:35.276Z,48.76
2018-03-21T08:30:06.616Z,50.73
2018-03-21T08:32:35.057Z,46.62
2018-03-21T08:35:07.345Z,51.97
2018-03-21T08:37:35.641Z,52.41
2018-03-21T08:40:06.963Z,47.76
2018-03-21T08:42:35.783Z,49.75
2018-03-21T08:45:07.486Z,52.88
2018-03-21T08:47:35.837Z,52.58
2018-03-21T08:50:08.035Z,50.10
2018-03-21T08:52:36.333Z,47.28
2018-03-21T08:55:06.569Z,47.10
2018-03-21T08:57:34.861Z,46.03
2018-03-21T09:00:06.846Z,46.20
2018-03-21T09:02:35.145Z,46.11
2018-03-21T09:05:07.275Z,48.56
2018-03-21T09:07:36.178Z,49.85
2018-03-21T09:10:07.726Z,51.70
2018-03-21T09:12:36.030Z,57.96
2018-03-21T09:15:06.805Z,52.39
2018-03-21T09:17:35.146Z,52.66
2018-03-21T09:20:07.246Z,55.33
2018-03-21T09:22:36.564Z,59.81
2018-03-21T09:25:06.804Z,62.78
2018-03-21T09:27:35.085Z,62.75
2018-03-21T09:30:07.532Z,59.92
2018-03-21T09:32:35.808Z,62.35
2018-03-21T09:35:07.716Z,63.95
2018-03-21T09:37:36.007Z,66.42
2018-03-21T09:40:07.777Z,69.13
2018-03-21T09:42:36.064Z,69.10
2018-03-21T09:45:07.397Z,69.52
2018-03-21T09:47:35.685Z,67.75
2018-03-21T09:50:08.245Z,67.36
2018-03-21T09:52:37.153Z,66.27
2018-03-21T09:55:06.502Z,64.79
2018-03-21T09:57:34.777Z,66.59
2018-03-21T10:00:09.693Z,64.89
2018-03-21T10:02:38.309Z,63.74
2018-03-21T10:05:06.705Z,62.45
2018-03-21T10:07:35.007Z,65.96
2018-03-21T10:10:06.218Z,68.65
2018-03-21T10:12:34.509Z,69.49
2018-03-21T10:15:06.349Z,69.71
2018-03-21T10:17:34.647Z,71.12
2018-03-21T10:20:06.109Z,71.87
2018-03-21T10:22:34.724Z,69.79
2018-03-21T10:25:06.247Z,69.76
2018-03-21T10:27:34.541Z,69.18
2018-03-21T10:30:09.220Z,66.96
2018-03-21T10:32:38.932Z,70.98
2018-03-21T10:35:07.243Z,70.49
2018-03-21T10:37:35.570Z,69.84
2018-03-21T10:40:06.840Z,70.45
2018-03-21T10:42:35.290Z,67.27
2018-03-21T10:45:07.446Z,67.09
2018-03-21T10:47:35.968Z,65.44
2018-03-21T10:50:07.569Z,69.30
2018-03-21T10:52:38.915Z,70.19
2018-03-21T10:55:08.110Z,69.90
2018-03-21T10:57:36.500Z,69.88
2018-03-21T11:00:07.756Z,70.00
2018-03-21T11:02:41.672Z,70.17
2018-03-21T11:05:09.966Z,68.96
2018-03-21T11:07:38.562Z,69.19
2018-03-21T11:10:06.836Z,70.13
2018-03-21T11:12:35.193Z,71.30
2018-03-21T11:15:07.077Z,71.07
2018-03-21T11:17:35.402Z,70.06
2018-03-21T11:20:07.638Z,72.00
2018-03-21T11:22:36.461Z,71.16
2018-03-21T11:25:07.993Z,70.50
2018-03-21T11:27:36.309Z,69.72
2018-03-21T11:30:06.349Z,70.05
2018-03-21T11:32:34.651Z,67.69
2018-03-21T11:35:09.574Z,67.59
2018-03-21T11:37:37.893Z,69.08
2018-03-21T11:40:06.206Z,69.31
2018-03-21T11:42:34.546Z,68.78
2018-03-21T11:45:09.800Z,68.20
2018-03-21T11:47:38.103Z,68.12
2018-03-21T11:50:06.416Z,66.80
2018-03-21T11:52:34.700Z,63.53
2018-03-21T11:55:08.446Z,64.88
2018-03-21T11:57:36.982Z,65.05
2018-03-21T12:00:06.661Z,64.71
2018-03-21T12:02:35.176Z,61.88
2018-03-21T12:05:07.269Z,60.79
2018-03-21T12:07:35.601Z,60.43
2018-03-21T12:10:07.631Z,57.57
2018-03-21T12:12:35.989Z,56.68
2018-03-21T12:15:07.979Z,54.12
2018-03-21T12:17:36.270Z,51.42
2018-03-21T12:20:06.409Z,51.68
2018-03-21T12:22:34.709Z,48.25
2018-03-21T12:25:06.182Z,50.83
2018-03-21T12:27:34.489Z,50.61
2018-03-21T12:30:06.448Z,56.73
2018-03-21T12:32:34.761Z,53.12
2018-03-21T12:35:06.875Z,51.25
2018-03-21T12:37:35.185Z,56.06
2018-03-21T12:40:06.588Z,57.49
2018-03-21T12:42:34.919Z,59.85
2018-03-21T12:45:06.985Z,59.78
2018-03-21T12:47:35.284Z,58.67
2018-03-21T12:50:07.241Z,58.39
2018-03-21T12:52:35.529Z,58.34
2018-03-21T12:55:06.907Z,55.47
2018-03-21T12:57:35.214Z,53.65
2018-03-21T13:00:06.447Z,54.17
2018-03-21T13:02:34.732Z,55.63
2018-03-21T13:05:09.924Z,55.46
2018-03-21T13:07:38.209Z,55.14
2018-03-21T13:10:06.701Z,54.74
2018-03-21T13:12:35.069Z,57.85
2018-03-21T13:15:06.367Z,59.02
2018-03-21T13:17:34.801Z,58.93
2018-03-21T13:20:06.185Z,59.73
2018-03-21T13:22:34.717Z,59.05
2018-03-21T13:25:09.818Z,58.76
2018-03-21T13:27:38.584Z,58.72
2018-03-21T13:30:06.885Z,57.07
2018-03-21T13:32:35.174Z,57.91
2018-03-21T13:35:07.025Z,55.93
2018-03-21T13:37:35.315Z,56.83
2018-03-21T13:40:07.024Z,58.05
2018-03-21T13:42:35.283Z,58.90
2018-03-21T13:45:06.328Z,59.42
2018-03-21T13:47:34.633Z,58.09
2018-03-21T13:50:09.807Z,57.35
2018-03-21T13:52:38.222Z,57.37
2018-03-21T13:55:06.519Z,58.56
2018-03-21T13:57:34.970Z,58.16
2018-03-21T14:00:09.044Z,60.30
2018-03-21T14:02:37.538Z,58.79
2018-03-21T14:05:06.886Z,60.02
2018-03-21T14:07:35.375Z,60.51
2018-03-21T14:10:06.362Z,60.83
2018-03-21T14:12:34.791Z,60.15
2018-03-21T14:15:09.803Z,60.26
2018-03-21T14:17:38.122Z,60.30
2018-03-21T14:20:06.565Z,60.11
2018-03-21T14:22:34.867Z,59.78
2018-03-21T14:25:06.547Z,60.12
2018-03-21T14:27:34.992Z,59.37
2018-03-21T14:30:06.570Z,59.04
2018-03-21T14:32:34.869Z,59.03
2018-03-21T14:35:06.285Z,59.20
2018-03-21T14:37:34.711Z,58.43
2018-03-21T14:40:09.610Z,57.54
2018-03-21T14:42:37.896Z,58.08
2018-03-21T14:45:07.233Z,58.69
2018-03-21T14:47:35.553Z,57.62
2018-03-21T14:50:06.423Z,59.02
2018-03-21T14:52:36.030Z,59.33
2018-03-21T14:55:08.063Z,58.71
2018-03-21T14:57:36.388Z,57.70
2018-03-21T15:00:09.547Z,58.96
2018-03-21T15:02:37.874Z,59.36
2018-03-21T15:05:06.726Z,57.89
2018-03-21T15:07:35.037Z,58.75
2018-03-21T15:10:07.100Z,59.71
2018-03-21T15:12:35.455Z,58.67
2018-03-21T15:15:07.398Z,59.22
2018-03-21T15:17:35.717Z,59.26
2018-03-21T15:20:06.501Z,59.50
2018-03-21T15:22:34.797Z,59.59
2018-03-21T15:25:09.781Z,59.62
2018-03-21T15:27:38.064Z,59.03
2018-03-21T15:30:06.510Z,58.94
2018-03-21T15:32:35.093Z,58.77
2018-03-21T15:35:06.526Z,58.28
2018-03-21T15:37:34.995Z,59.03
2018-03-21T15:40:07.001Z,59.29
2018-03-21T15:42:35.261Z,59.47
2018-03-21T15:45:06.644Z,59.16
2018-03-21T15:47:35.297Z,58.77
2018-03-21T15:50:07.225Z,58.18
2018-03-21T15:52:35.501Z,58.14
2018-03-21T15:55:06.469Z,58.87
2018-03-21T15:57:34.861Z,59.06
2018-03-21T16:00:06.263Z,58.54
2018-03-21T16:02:34.568Z,58.39
2018-03-21T16:05:09.612Z,59.01
2018-03-21T16:07:38.001Z,59.62
2018-03-21T16:10:06.513Z,58.87
2018-03-21T16:12:34.833Z,58.92
2018-03-21T16:15:09.970Z,59.13
2018-03-21T16:17:38.301Z,58.87
2018-03-21T16:20:06.813Z,59.10
2018-03-21T16:22:35.549Z,59.01
2018-03-21T16:25:07.260Z,59.14
2018-03-21T16:27:35.585Z,58.52
2018-03-21T16:30:06.462Z,58.04
2018-03-21T16:32:34.924Z,57.85
2018-03-21T16:35:09.927Z,58.89
2018-03-21T16:37:38.344Z,59.04
2018-03-21T16:40:06.865Z,58.60
2018-03-21T16:42:35.413Z,58.73
2018-03-21T16:45:07.379Z,58.57
2018-03-21T16:47:35.682Z,59.93
2018-03-21T16:50:07.225Z,59.74
2018-03-21T16:52:35.557Z,59.30
2018-03-21T16:55:06.767Z,58.76
2018-03-21T16:57:35.074Z,59.10
2018-03-21T17:00:06.554Z,58.69
2018-03-21T17:02:34.834Z,58.43
2018-03-21T17:05:09.991Z,58.64
2018-03-21T17:07:38.258Z,58.82
2018-03-21T17:10:06.613Z,58.59
2018-03-21T17:12:35.137Z,58.53
2018-03-21T17:15:06.787Z,59.16
2018-03-21T17:17:35.077Z,60.09
2018-03-21T17:20:06.696Z,60.27
2018-03-21T17:22:35.566Z,60.04
2018-03-21T17:25:07.079Z,60.25
2018-03-21T17:27:35.423Z,60.33
2018-03-21T17:30:05.732Z,60.59
2018-03-21T17:32:34.023Z,60.49
2018-03-21T17:35:06.245Z,60.85
2018-03-21T17:37:34.568Z,60.88
2018-03-21T17:40:06.709Z,60.96
2018-03-21T17:42:35.000Z,61.17
2018-03-21T17:45:06.669Z,61.25
2018-03-21T17:47:34.989Z,61.46
2018-03-21T17:50:05.519Z,61.96
2018-03-21T17:52:33.897Z,62.29
2018-03-21T17:55:05.752Z,62.57
2018-03-21T17:57:34.090Z,63.05
2018-03-21T18:00:05.542Z,63.77
2018-03-21T18:02:33.863Z,64.35
2018-03-21T18:05:08.229Z,64.28
2018-03-21T18:07:36.554Z,64.82
2018-03-21T18:10:06.089Z,65.53
2018-03-21T18:12:34.725Z,65.57
2018-03-21T18:15:06.443Z,65.27
2018-03-21T18:17:34.754Z,65.92
2018-03-21T18:20:05.519Z,65.84
2018-03-21T18:22:33.847Z,65.99
2018-03-21T18:25:06.017Z,66.24
2018-03-21T18:27:34.310Z,66.93
2018-03-21T18:30:08.370Z,67.79
2018-03-21T18:32:37.697Z,67.82
2018-03-21T18:35:06.035Z,67.82
2018-03-21T18:37:34.289Z,68.17
2018-03-21T18:40:05.888Z,67.59
2018-03-21T18:42:34.193Z,67.75
2018-03-21T18:45:06.331Z,67.53
2018-03-21T18:47:34.730Z,67.60
2018-03-21T18:50:05.608Z,67.68
2018-03-21T18:52:33.925Z,67.50
2018-03-21T18:55:09.227Z,67.20
2018-03-21T18:57:37.545Z,67.48
2018-03-21T19:00:05.890Z,68.07
2018-03-21T19:02:34.910Z,68.62
2018-03-21T19:05:06.565Z,68.81
2018-03-21T19:07:34.866Z,69.25
2018-03-21T19:10:07.182Z,69.23
2018-03-21T19:12:35.496Z,69.09
2018-03-21T19:15:07.140Z,68.97
2018-03-21T19:17:35.447Z,69.43
2018-03-21T19:20:06.784Z,69.97
2018-03-21T19:22:35.800Z,69.67
2018-03-21T19:25:07.126Z,69.78
2018-03-21T19:27:35.619Z,69.87
2018-03-21T19:30:12.280Z,70.40
2018-03-21T19:32:40.594Z,70.12
2018-03-21T19:35:08.920Z,69.68
2018-03-21T19:37:37.227Z,69.73
2018-03-21T19:40:06.629Z,70.11
2018-03-21T19:42:34.926Z,70.43
2018-03-21T19:45:06.331Z,71.17
2018-03-21T19:47:34.657Z,71.54
2018-03-21T19:50:05.847Z,71.59
2018-03-21T19:52:34.173Z,71.40
2018-03-21T19:55:07.199Z,71.62
2018-03-21T19:57:35.632Z,71.91
2018-03-21T20:00:07.383Z,72.17
2018-03-21T20:02:35.705Z,72.47
2018-03-21T20:05:05.741Z,72.51
2018-03-21T20:07:34.065Z,72.44
2018-03-21T20:10:05.937Z,72.40
2018-03-21T20:12:34.249Z,72.43
2018-03-21T20:15:06.953Z,72.70
2018-03-21T20:17:35.695Z,72.98
2018-03-21T20:20:05.709Z,72.76
2018-03-21T20:22:34.028Z,72.44
2018-03-21T20:25:09.041Z,72.95
2018-03-21T20:27:37.353Z,73.38
2018-03-21T20:30:05.741Z,73.37
2018-03-21T20:32:34.049Z,73.38
2018-03-21T20:35:06.601Z,73.68
2018-03-21T20:37:35.071Z,73.85
2018-03-21T20:40:06.634Z,73.63
2018-03-21T20:42:34.993Z,73.43
2018-03-21T20:45:07.152Z,73.29
2018-03-21T20:47:35.492Z,73.63
2018-03-21T20:50:07.016Z,73.87
2018-03-21T20:52:35.314Z,74.07
2018-03-21T20:55:06.972Z,74.48
2018-03-21T20:57:35.355Z,74.65
2018-03-21T21:00:06.799Z,74.31
2018-03-21T21:02:35.139Z,74.48
2018-03-21T21:05:07.314Z,74.58
2018-03-21T21:07:35.638Z,74.83
2018-03-21T21:10:05.778Z,74.41
2018-03-21T21:12:34.092Z,74.38
2018-03-21T21:15:05.768Z,74.30
2018-03-21T21:17:34.086Z,74.69
2018-03-21T21:20:09.131Z,74.91
2018-03-21T21:22:37.440Z,74.83
2018-03-21T21:25:05.804Z,74.77
2018-03-21T21:27:34.112Z,74.94
2018-03-21T21:30:09.166Z,74.77
2018-03-21T21:32:37.466Z,75.08
2018-03-21T21:35:05.821Z,75.04
2018-03-21T21:37:34.126Z,75.13
2018-03-21T21:40:09.266Z,75.24
2018-03-21T21:42:37.806Z,75.56
2018-03-21T21:45:06.133Z,75.26
2018-03-21T21:47:34.511Z,75.64
2018-03-21T21:50:08.461Z,75.78
2018-03-21T21:52:36.785Z,76.17
2018-03-21T21:55:06.202Z,76.67
2018-03-21T21:57:34.709Z,76.46
2018-03-21T22:00:07.547Z,76.22
2018-03-21T22:02:35.830Z,75.89
2018-03-21T22:05:06.007Z,75.80
2018-03-21T22:07:34.533Z,76.33
2018-03-21T22:10:06.221Z,76.28
2018-03-21T22:12:35.018Z,76.22
2018-03-21T22:15:06.477Z,77.56
2018-03-21T22:17:35.245Z,77.10
2018-03-21T22:20:07.136Z,77.06
2018-03-21T22:22:35.449Z,76.62
2018-03-21T22:25:06.707Z,76.85
2018-03-21T22:27:34.977Z,76.53
2018-03-21T22:30:05.898Z,76.49
2018-03-21T22:32:34.874Z,76.58
2018-03-21T22:35:06.976Z,76.84
2018-03-21T22:37:35.437Z,77.22
2018-03-21T22:40:07.614Z,77.37
2018-03-21T22:42:35.907Z,77.33
2018-03-21T22:45:05.867Z,77.36
2018-03-21T22:47:34.143Z,77.73
2018-03-21T22:50:05.690Z,77.97
2018-03-21T22:52:33.986Z,78.23
2018-03-21T22:55:05.774Z,78.48
2018-03-21T22:57:34.041Z,78.56
2018-03-21T23:00:09.023Z,78.11
2018-03-21T23:02:37.309Z,78.04
2018-03-21T23:05:06.125Z,78.04
2018-03-21T23:07:34.445Z,78.06
2018-03-21T23:10:06.490Z,78.24
2018-03-21T23:12:35.189Z,77.48
2018-03-21T23:15:05.988Z,77.49
2018-03-21T23:17:34.826Z,77.07
2018-03-21T23:20:06.037Z,77.36
2018-03-21T23:22:34.340Z,77.81
2018-03-21T23:25:07.732Z,77.58
2018-03-21T23:27:36.037Z,77.86
2018-03-21T23:30:07.758Z,78.04
2018-03-21T23:32:36.075Z,78.26
2018-03-21T23:35:09.267Z,78.01
2018-03-21T23:37:37.569Z,77.83
2018-03-21T23:40:06.082Z,77.17
2018-03-21T23:42:34.595Z,77.81
2018-03-21T23:45:06.649Z,78.12
2018-03-21T23:47:34.947Z,78.25
2018-03-21T23:50:06.675Z,78.04
2018-03-21T23:52:34.974Z,77.88
2018-03-21T23:55:06.763Z,77.73
2018-03-21T23:57:35.054Z,77.59
